createdAt,value
2022-09-29T00:02:20.861Z,10.07
2022-09-29T00:04:47.710Z,9.25
2022-09-29T00:07:14.558Z,8.77
2022-09-29T00:09:41.422Z,7.47
2022-09-29T00:12:08.373Z,7.00
2022-09-29T00:14:35.339Z,8.20
2022-09-29T00:17:02.220Z,7.95
2022-09-29T00:19:29.317Z,7.72
2022-09-29T00:21:56.137Z,7.97
2022-09-29T00:24:23.190Z,7.00
2022-09-29T00:26:50.205Z,8.50
2022-09-29T00:29:17.095Z,7.18
2022-09-29T00:31:44.141Z,14.25
2022-09-29T00:34:11.118Z,6.22
2022-09-29T00:36:38.417Z,6.35
2022-09-29T00:39:05.351Z,7.78
2022-09-29T00:41:33.966Z,9.38
2022-09-29T00:44:13.766Z,8.00
2022-09-29T00:46:50.222Z,10.35
2022-09-29T00:49:29.190Z,7.82
2022-09-29T00:52:20.655Z,8.27
2022-09-29T00:54:50.830Z,10.85
2022-09-29T00:57:19.154Z,7.40
2022-09-29T00:59:50.594Z,6.82
2022-09-29T01:02:17.846Z,7.93
2022-09-29T01:04:44.891Z,7.13
2022-09-29T01:07:11.756Z,7.07
2022-09-29T01:09:39.130Z,7.18
2022-09-29T01:12:06.071Z,6.50
2022-09-29T01:14:33.320Z,6.97
2022-09-29T01:17:00.338Z,6.97
2022-09-29T01:19:49.111Z,6.40
2022-09-29T01:22:25.715Z,6.35
2022-09-29T01:24:57.430Z,8.65
2022-09-29T01:27:40.300Z,6.30
2022-09-29T01:30:20.674Z,13.65
2022-09-29T01:33:03.985Z,6.38
2022-09-29T01:36:12.820Z,5.47
2022-09-29T01:38:40.139Z,7.10
2022-09-29T01:41:12.059Z,4.95
2022-09-29T01:43:49.365Z,7.28
2022-09-29T01:46:21.571Z,5.97
2022-09-29T01:48:50.954Z,7.00
2022-09-29T01:51:23.695Z,6.30
2022-09-29T01:53:52.384Z,6.03
2022-09-29T01:56:36.222Z,7.35
2022-09-29T01:59:13.198Z,6.50
2022-09-29T02:01:41.168Z,6.68
2022-09-29T02:04:26.088Z,6.95
2022-09-29T02:07:00.136Z,7.20
2022-09-29T02:09:30.215Z,7.15
2022-09-29T02:11:57.082Z,5.93
2022-09-29T02:14:32.040Z,7.63
2022-09-29T02:17:19.842Z,7.35
2022-09-29T02:19:48.142Z,8.80
2022-09-29T02:22:15.044Z,6.05
2022-09-29T02:24:42.215Z,6.28
2022-09-29T02:27:09.119Z,5.95
2022-09-29T02:29:36.405Z,5.80
2022-09-29T02:32:07.090Z,7.05
2022-09-29T02:34:35.704Z,5.40
2022-09-29T02:37:17.615Z,5.00
2022-09-29T02:39:58.871Z,6.32
2022-09-29T02:42:47.175Z,4.97
2022-09-29T02:45:29.065Z,7.82
2022-09-29T02:48:04.993Z,9.45
2022-09-29T02:50:34.844Z,5.20
2022-09-29T02:53:01.736Z,7.05
2022-09-29T02:55:49.838Z,9.20
2022-09-29T02:58:20.626Z,4.80
2022-09-29T03:00:47.743Z,5.93
2022-09-29T03:03:14.700Z,4.93
2022-09-29T03:05:41.667Z,4.90
2022-09-29T03:08:08.499Z,7.05
2022-09-29T03:10:35.395Z,5.68
2022-09-29T03:13:02.268Z,5.47
2022-09-29T03:15:29.889Z,5.78
2022-09-29T03:17:57.333Z,5.38
2022-09-29T03:20:24.356Z,5.47
2022-09-29T03:22:52.205Z,7.80
2022-09-29T03:25:19.122Z,5.80
2022-09-29T03:27:46.469Z,5.82
2022-09-29T03:30:13.669Z,6.25
2022-09-29T03:32:40.506Z,6.25
2022-09-29T03:35:08.026Z,5.43
2022-09-29T03:37:34.930Z,5.13
2022-09-29T03:40:02.349Z,4.53
2022-09-29T03:42:29.271Z,5.95
2022-09-29T03:44:56.127Z,6.60
2022-09-29T03:47:23.086Z,6.70
2022-09-29T03:49:49.999Z,6.78
2022-09-29T03:52:16.888Z,7.97
2022-09-29T03:54:43.744Z,5.15
2022-09-29T03:57:10.669Z,5.65
2022-09-29T03:59:40.003Z,4.93
2022-09-29T04:02:08.959Z,5.22
2022-09-29T04:04:35.820Z,6.22
2022-09-29T04:07:02.675Z,7.53
2022-09-29T04:09:29.498Z,7.60
2022-09-29T04:11:56.375Z,7.70
2022-09-29T04:14:23.234Z,7.60
2022-09-29T04:16:50.118Z,6.57
2022-09-29T04:19:17.037Z,6.90
2022-09-29T04:21:43.995Z,5.72
2022-09-29T04:24:10.983Z,6.30
2022-09-29T04:26:37.835Z,6.55
2022-09-29T04:29:04.680Z,5.40
2022-09-29T04:31:31.586Z,7.03
2022-09-29T04:33:58.446Z,7.07
2022-09-29T04:36:25.704Z,7.97
2022-09-29T04:38:53.482Z,6.88
2022-09-29T04:41:20.747Z,6.03
2022-09-29T04:43:47.576Z,6.82
2022-09-29T04:46:14.706Z,7.85
2022-09-29T04:48:41.629Z,5.63
2022-09-29T04:51:10.678Z,7.35
2022-09-29T04:53:37.920Z,7.10
2022-09-29T04:56:06.206Z,8.23
2022-09-29T04:58:33.319Z,8.52
2022-09-29T05:01:10.841Z,5.63
2022-09-29T05:03:37.739Z,7.18
2022-09-29T05:06:04.913Z,7.63
2022-09-29T05:08:31.866Z,8.10
2022-09-29T05:10:58.717Z,6.53
2022-09-29T05:13:25.626Z,6.95
2022-09-29T05:15:56.195Z,7.60
2022-09-29T05:18:23.783Z,8.02
2022-09-29T05:21:05.673Z,7.57
2022-09-29T05:23:37.870Z,7.53
2022-09-29T05:26:05.929Z,6.80
2022-09-29T05:28:33.095Z,8.35
2022-09-29T05:31:04.324Z,6.95
2022-09-29T05:33:31.284Z,6.03
2022-09-29T05:35:58.367Z,9.77
2022-09-29T05:38:25.555Z,8.13
2022-09-29T05:40:52.806Z,8.20
2022-09-29T05:43:20.702Z,8.27
2022-09-29T05:45:47.601Z,6.78
2022-09-29T05:48:14.454Z,8.13
2022-09-29T05:50:43.987Z,7.95
2022-09-29T05:53:11.130Z,5.47
2022-09-29T05:55:38.366Z,7.68
2022-09-29T05:58:05.964Z,7.13
2022-09-29T06:00:33.339Z,8.63
2022-09-29T06:03:00.375Z,7.50
2022-09-29T06:05:27.832Z,6.47
2022-09-29T06:07:55.662Z,8.55
2022-09-29T06:10:22.639Z,7.00
2022-09-29T06:12:49.515Z,6.50
2022-09-29T06:15:16.472Z,7.93
2022-09-29T06:17:43.362Z,9.52
2022-09-29T06:20:10.859Z,5.45
2022-09-29T06:22:37.746Z,7.20
2022-09-29T06:25:04.810Z,8.38
2022-09-29T06:27:31.738Z,8.27
2022-09-29T06:29:59.275Z,6.90
2022-09-29T06:32:26.310Z,9.55
2022-09-29T06:35:11.697Z,5.57
2022-09-29T06:37:39.761Z,6.38
2022-09-29T06:40:11.016Z,5.63
2022-09-29T06:42:38.696Z,6.35
2022-09-29T06:45:06.230Z,6.63
2022-09-29T06:47:33.069Z,5.18
2022-09-29T06:50:05.113Z,6.43
2022-09-29T06:52:34.279Z,8.15
2022-09-29T06:55:01.139Z,8.02
2022-09-29T06:57:28.100Z,10.55
2022-09-29T06:59:54.993Z,6.57
2022-09-29T07:02:21.949Z,8.43
2022-09-29T07:04:49.117Z,7.70
2022-09-29T07:07:16.670Z,5.40
2022-09-29T07:09:43.829Z,7.35
2022-09-29T07:12:11.768Z,6.07
2022-09-29T07:14:38.695Z,4.97
2022-09-29T07:17:05.587Z,4.70
2022-09-29T07:19:32.857Z,5.40
2022-09-29T07:21:59.828Z,6.30
2022-09-29T07:24:26.865Z,10.05
2022-09-29T07:26:53.770Z,5.15
2022-09-29T07:29:21.080Z,6.45
2022-09-29T07:31:51.995Z,5.95
2022-09-29T07:34:20.483Z,6.50
2022-09-29T07:36:47.471Z,5.90
2022-09-29T07:39:14.427Z,6.85
2022-09-29T07:41:41.339Z,6.50
2022-09-29T07:44:08.238Z,6.97
2022-09-29T07:46:35.091Z,9.13
2022-09-29T07:49:01.945Z,8.93
2022-09-29T07:51:28.860Z,5.85
2022-09-29T07:53:55.754Z,6.47
2022-09-29T07:56:23.034Z,4.97
2022-09-29T07:58:50.250Z,4.22
2022-09-29T08:01:17.858Z,3.85
2022-09-29T08:03:50.449Z,4.28
2022-09-29T08:06:17.523Z,6.57
2022-09-29T08:08:54.486Z,5.30
2022-09-29T08:11:31.130Z,6.35
2022-09-29T08:13:58.855Z,4.57
2022-09-29T08:16:26.123Z,6.15
2022-09-29T08:18:53.219Z,5.35
2022-09-29T08:21:20.097Z,4.10
2022-09-29T08:23:47.542Z,6.18
2022-09-29T08:26:16.143Z,6.60
2022-09-29T08:28:43.220Z,4.40
2022-09-29T08:31:12.593Z,6.30
2022-09-29T08:33:39.534Z,9.07
2022-09-29T08:36:14.454Z,5.50
2022-09-29T08:38:45.671Z,4.32
2022-09-29T08:41:21.317Z,6.82
2022-09-29T08:43:48.204Z,8.25
2022-09-29T08:46:35.413Z,5.63
2022-09-29T08:49:07.343Z,8.85
2022-09-29T08:51:42.300Z,8.43
2022-09-29T08:54:48.769Z,6.88
2022-09-29T08:57:18.355Z,6.30
2022-09-29T08:59:55.044Z,9.13
2022-09-29T09:02:42.316Z,6.32
2022-09-29T09:06:03.173Z,30.58
2022-09-29T09:08:51.373Z,9.98
2022-09-29T09:11:47.293Z,8.15
2022-09-29T09:14:45.352Z,6.13
2022-09-29T09:17:22.611Z,7.40
2022-09-29T09:20:04.474Z,6.75
2022-09-29T09:22:55.469Z,9.05
2022-09-29T09:25:32.938Z,6.60
2022-09-29T09:28:18.580Z,7.25
2022-09-29T09:30:53.470Z,7.13
2022-09-29T09:33:31.795Z,9.13
2022-09-29T09:36:03.471Z,5.32
2022-09-29T09:38:45.179Z,7.10
2022-09-29T09:41:17.422Z,8.25
2022-09-29T09:43:46.541Z,6.72
2022-09-29T09:46:23.433Z,5.77
2022-09-29T09:48:56.695Z,5.70
2022-09-29T09:51:32.308Z,7.55
2022-09-29T09:54:00.550Z,7.95
2022-09-29T09:56:36.565Z,11.20
2022-09-29T09:59:31.028Z,10.43
2022-09-29T10:01:58.371Z,5.88
2022-09-29T10:04:26.153Z,9.75
2022-09-29T10:06:53.069Z,6.65
2022-09-29T10:09:20.171Z,7.40
2022-09-29T10:11:47.706Z,7.10
2022-09-29T10:14:27.134Z,7.95
2022-09-29T10:17:05.414Z,8.75
2022-09-29T10:19:56.641Z,6.88
2022-09-29T10:22:23.802Z,8.25
2022-09-29T10:24:56.883Z,10.98
2022-09-29T10:27:26.074Z,7.93
2022-09-29T10:29:53.130Z,9.07
2022-09-29T10:32:19.942Z,6.20
2022-09-29T10:34:49.995Z,8.30
2022-09-29T10:37:38.823Z,4.47
2022-09-29T10:40:08.895Z,5.45
2022-09-29T10:42:36.540Z,6.60
2022-09-29T10:45:25.138Z,7.43
2022-09-29T10:47:57.938Z,5.63
2022-09-29T10:50:34.917Z,9.13
2022-09-29T10:53:26.039Z,6.82
2022-09-29T10:55:54.707Z,5.45
2022-09-29T10:58:45.452Z,5.65
2022-09-29T11:01:17.190Z,6.20
2022-09-29T11:04:03.553Z,5.38
2022-09-29T11:06:31.821Z,4.30
2022-09-29T11:08:58.746Z,7.75
2022-09-29T11:11:57.908Z,9.80
2022-09-29T11:14:31.006Z,8.20
2022-09-29T11:17:01.554Z,5.53
2022-09-29T11:19:31.542Z,8.48
2022-09-29T11:22:10.755Z,4.60
2022-09-29T11:24:52.913Z,7.60
2022-09-29T11:27:31.991Z,5.50
2022-09-29T11:30:11.088Z,5.72
2022-09-29T11:32:50.353Z,6.80
2022-09-29T11:35:43.467Z,3.75
2022-09-29T11:38:31.867Z,3.70
2022-09-29T11:40:58.735Z,3.45
2022-09-29T11:43:45.574Z,5.50
2022-09-29T11:46:22.493Z,7.25
2022-09-29T11:49:18.701Z,5.70
2022-09-29T11:52:00.630Z,3.15
2022-09-29T11:54:44.414Z,4.00
2022-09-29T11:57:19.703Z,4.18
2022-09-29T12:00:05.236Z,4.35
2022-09-29T12:02:50.765Z,6.25
2022-09-29T12:05:20.027Z,4.90
2022-09-29T12:08:05.033Z,3.90
2022-09-29T12:10:44.305Z,3.42
2022-09-29T12:13:35.439Z,3.47
2022-09-29T12:16:04.601Z,7.00
2022-09-29T12:18:58.480Z,3.47
2022-09-29T12:21:40.938Z,3.38
2022-09-29T12:24:17.847Z,3.25
2022-09-29T12:26:46.415Z,2.40
2022-09-29T12:29:22.283Z,3.17
2022-09-29T12:31:50.367Z,2.58
2022-09-29T12:34:26.537Z,3.60
2022-09-29T12:37:05.961Z,3.20
2022-09-29T12:39:56.877Z,5.75
2022-09-29T12:42:36.269Z,3.35
2022-09-29T12:45:12.143Z,3.00
2022-09-29T12:47:58.126Z,2.17
2022-09-29T12:50:29.109Z,2.97
2022-09-29T12:53:00.523Z,4.45
2022-09-29T12:55:44.531Z,12.02
2022-09-29T12:58:39.963Z,5.45
2022-09-29T13:01:27.230Z,3.42
2022-09-29T13:04:16.694Z,3.33
2022-09-29T13:06:58.586Z,3.20
2022-09-29T13:10:04.342Z,3.17
2022-09-29T13:12:34.167Z,2.70
2022-09-29T13:18:10.466Z,2.50
2022-09-29T13:20:52.183Z,2.50
2022-09-29T13:23:28.470Z,2.65
2022-09-29T13:26:07.260Z,4.03
2022-09-29T13:28:40.009Z,3.35
2022-09-29T13:31:09.353Z,3.45
2022-09-29T13:33:36.380Z,5.13
2022-09-29T13:36:03.353Z,3.63
2022-09-29T13:38:31.046Z,3.58
2022-09-29T13:41:11.265Z,2.55
2022-09-29T13:43:39.554Z,2.88
2022-09-29T13:46:28.214Z,2.30
2022-09-29T13:49:08.519Z,2.58
2022-09-29T13:52:00.689Z,2.10
2022-09-29T13:54:34.560Z,2.42
2022-09-29T13:57:25.301Z,2.53
2022-09-29T13:59:56.895Z,3.13
2022-09-29T14:02:37.995Z,3.05
2022-09-29T14:05:06.946Z,3.33
2022-09-29T14:07:38.442Z,2.05
2022-09-29T14:10:18.844Z,1.83
2022-09-29T14:12:50.263Z,2.75
2022-09-29T14:15:19.927Z,2.25
2022-09-29T14:17:51.282Z,3.15
2022-09-29T14:20:22.080Z,3.20
2022-09-29T14:22:57.629Z,1.95
2022-09-29T14:25:29.807Z,3.67
2022-09-29T14:27:58.426Z,3.08
2022-09-29T14:30:38.236Z,4.68
2022-09-29T14:33:20.854Z,2.95
2022-09-29T14:36:00.276Z,1.80
2022-09-29T14:38:30.221Z,2.10
2022-09-29T14:41:10.417Z,2.45
2022-09-29T14:43:45.097Z,4.47
2022-09-29T14:46:39.835Z,4.63
2022-09-29T14:49:42.632Z,4.47
2022-09-29T14:52:31.682Z,4.10
2022-09-29T14:55:42.589Z,3.63
2022-09-29T14:58:29.367Z,2.88
2022-09-29T15:01:10.619Z,2.58
2022-09-29T15:03:47.642Z,2.85
2022-09-29T15:06:25.264Z,2.80
2022-09-29T15:08:55.010Z,2.38
2022-09-29T15:11:30.020Z,3.40
2022-09-29T15:13:57.758Z,3.38
2022-09-29T15:16:43.340Z,3.30
2022-09-29T15:19:21.708Z,2.33
2022-09-29T15:22:26.368Z,3.33
2022-09-29T15:24:59.942Z,4.07
2022-09-29T15:27:26.830Z,5.85
2022-09-29T15:29:56.902Z,6.15
2022-09-29T15:32:26.151Z,2.35
2022-09-29T15:34:56.016Z,3.83
2022-09-29T15:37:23.198Z,2.70
2022-09-29T15:39:53.029Z,4.68
2022-09-29T15:45:12.986Z,2.38
2022-09-29T15:47:40.948Z,4.73
2022-09-29T15:50:23.339Z,4.53
2022-09-29T15:52:50.668Z,3.78
2022-09-29T15:55:19.385Z,3.03
2022-09-29T15:57:49.657Z,4.75
2022-09-29T16:00:22.963Z,2.50
2022-09-29T16:03:03.865Z,3.38
2022-09-29T16:05:35.400Z,2.65
2022-09-29T16:08:04.182Z,2.88
2022-09-29T16:10:41.499Z,5.38
2022-09-29T16:13:14.738Z,2.20
2022-09-29T16:15:44.120Z,2.83
2022-09-29T16:18:20.727Z,5.65
2022-09-29T16:20:47.608Z,2.70
2022-09-29T16:23:25.385Z,6.80
2022-09-29T16:26:07.600Z,3.92
2022-09-29T16:28:36.283Z,3.45
2022-09-29T16:31:04.165Z,2.55
2022-09-29T16:33:32.966Z,3.80
2022-09-29T16:36:18.975Z,4.18
2022-09-29T16:38:46.399Z,5.50
2022-09-29T16:41:35.845Z,4.28
2022-09-29T16:44:12.814Z,5.05
2022-09-29T16:46:46.379Z,3.15
2022-09-29T16:49:26.107Z,4.05
2022-09-29T16:51:53.721Z,5.22
2022-09-29T16:54:29.027Z,4.72
2022-09-29T16:57:23.716Z,4.43
2022-09-29T16:59:55.537Z,3.30
2022-09-29T17:02:22.786Z,3.63
2022-09-29T17:04:53.135Z,4.53
2022-09-29T17:07:21.521Z,3.40
2022-09-29T17:09:55.426Z,3.20
2022-09-29T17:12:22.662Z,5.60
2022-09-29T17:14:50.500Z,4.75
2022-09-29T17:17:25.030Z,3.35
2022-09-29T17:19:52.683Z,3.05
2022-09-29T17:22:24.960Z,3.47
2022-09-29T17:24:51.947Z,4.05
2022-09-29T17:27:37.687Z,1.77
2022-09-29T17:30:05.665Z,3.17
2022-09-29T17:32:32.570Z,2.75
2022-09-29T17:34:59.448Z,2.92
2022-09-29T17:37:26.430Z,3.33
2022-09-29T17:39:53.550Z,4.38
2022-09-29T17:42:20.856Z,2.30
2022-09-29T17:44:48.182Z,3.25
2022-09-29T17:47:37.285Z,3.67
2022-09-29T17:50:20.781Z,2.83
2022-09-29T17:52:47.661Z,3.33
2022-09-29T17:55:14.581Z,2.95
2022-09-29T17:57:42.909Z,4.55
2022-09-29T18:00:31.583Z,5.13
2022-09-29T18:02:59.418Z,6.85
2022-09-29T18:05:27.730Z,6.55
2022-09-29T18:07:56.009Z,4.07
2022-09-29T18:10:26.816Z,6.22
2022-09-29T18:12:53.832Z,6.03
2022-09-29T18:15:20.859Z,12.55
2022-09-29T18:17:47.727Z,3.80
2022-09-29T18:20:19.340Z,4.22
2022-09-29T18:22:47.170Z,4.70
2022-09-29T18:25:18.666Z,7.25
2022-09-29T18:27:46.524Z,14.13
2022-09-29T18:30:20.683Z,24.63
2022-09-29T18:32:48.615Z,24.85
2022-09-29T18:35:17.672Z,167.73
2022-09-29T18:37:44.567Z,129.47
2022-09-29T18:40:11.677Z,146.45
2022-09-29T18:42:42.967Z,115.68
2022-09-29T18:45:12.305Z,109.80
2022-09-29T18:47:44.051Z,60.85
2022-09-29T18:50:19.765Z,45.80
2022-09-29T18:52:48.324Z,43.35
2022-09-29T18:55:17.814Z,45.22
2022-09-29T18:57:45.374Z,77.57
2022-09-29T19:00:14.781Z,57.33
2022-09-29T19:02:42.728Z,48.00
2022-09-29T19:05:16.910Z,38.60
2022-09-29T19:07:46.557Z,25.67
2022-09-29T19:10:14.422Z,22.70
2022-09-29T19:12:45.418Z,16.98
2022-09-29T19:15:13.044Z,13.63
2022-09-29T19:17:40.409Z,12.13
2022-09-29T19:20:07.594Z,10.88
2022-09-29T19:22:38.526Z,12.23
2022-09-29T19:25:06.635Z,15.45
2022-09-29T19:27:33.524Z,13.73
2022-09-29T19:30:03.409Z,10.48
2022-09-29T19:32:30.603Z,9.10
2022-09-29T19:34:57.830Z,7.35
2022-09-29T19:37:25.478Z,7.70
2022-09-29T19:39:52.562Z,11.98
2022-09-29T19:42:19.431Z,9.95
2022-09-29T19:44:46.298Z,7.40
2022-09-29T19:47:13.387Z,9.02
2022-09-29T19:49:40.286Z,10.00
2022-09-29T19:52:07.221Z,8.38
2022-09-29T19:54:36.250Z,7.65
2022-09-29T19:57:08.563Z,9.27
2022-09-29T19:59:36.874Z,5.75
2022-09-29T20:02:05.564Z,8.10
2022-09-29T20:04:34.271Z,6.95
2022-09-29T20:07:01.601Z,8.65
2022-09-29T20:09:28.663Z,6.25
2022-09-29T20:11:55.698Z,6.75
2022-09-29T20:14:23.380Z,4.80
2022-09-29T20:16:52.300Z,9.05
2022-09-29T20:19:19.673Z,8.38
2022-09-29T20:21:48.239Z,7.07
2022-09-29T20:24:15.935Z,9.57
2022-09-29T20:26:44.366Z,6.22
2022-09-29T20:29:12.292Z,6.90
2022-09-29T20:31:39.187Z,13.13
2022-09-29T20:34:07.048Z,6.45
2022-09-29T20:36:34.429Z,7.95
2022-09-29T20:39:01.383Z,6.85
2022-09-29T20:41:31.134Z,7.72
2022-09-29T20:43:58.682Z,8.02
2022-09-29T20:46:27.767Z,6.20
2022-09-29T20:48:55.996Z,8.68
2022-09-29T20:51:24.053Z,9.52
2022-09-29T20:53:52.929Z,7.90
2022-09-29T20:56:19.929Z,7.35
2022-09-29T20:58:49.050Z,6.95
2022-09-29T21:01:27.449Z,7.90
2022-09-29T21:04:03.517Z,7.28
2022-09-29T21:06:31.495Z,9.07
2022-09-29T21:08:58.966Z,9.48
2022-09-29T21:11:26.172Z,7.40
2022-09-29T21:13:57.917Z,10.10
2022-09-29T21:16:25.370Z,8.10
2022-09-29T21:18:55.467Z,10.98
2022-09-29T21:21:22.502Z,10.68
2022-09-29T21:23:50.695Z,14.15
2022-09-29T21:26:19.280Z,10.10
2022-09-29T21:28:54.369Z,9.07
2022-09-29T21:31:22.758Z,11.60
2022-09-29T21:33:57.257Z,8.13
2022-09-29T21:36:25.200Z,8.52
2022-09-29T21:38:52.173Z,12.65
2022-09-29T21:41:22.848Z,8.95
2022-09-29T21:43:51.272Z,10.32
2022-09-29T21:46:19.567Z,9.68
2022-09-29T21:48:50.009Z,9.02
2022-09-29T21:51:18.538Z,10.20
2022-09-29T21:53:45.519Z,8.50
2022-09-29T21:56:14.046Z,10.63
2022-09-29T21:58:40.929Z,11.10
2022-09-29T22:01:11.353Z,14.48
2022-09-29T22:03:42.995Z,10.75
2022-09-29T22:06:30.783Z,9.15
2022-09-29T22:08:58.011Z,12.65
2022-09-29T22:11:39.053Z,10.35
2022-09-29T22:14:06.127Z,12.18
2022-09-29T22:16:34.063Z,22.42
2022-09-29T22:21:48.550Z,12.82
2022-09-29T22:24:15.506Z,10.10
2022-09-29T22:26:42.468Z,10.65
2022-09-29T22:29:09.445Z,15.18
2022-09-29T22:31:36.397Z,16.23
2022-09-29T22:34:04.322Z,11.40
2022-09-29T22:36:32.858Z,15.27
2022-09-29T22:38:59.899Z,12.10
2022-09-29T22:41:26.835Z,9.68
2022-09-29T22:43:54.738Z,13.68
2022-09-29T22:46:22.654Z,9.15
2022-09-29T22:48:49.802Z,10.52
2022-09-29T22:51:16.907Z,12.13
2022-09-29T22:53:43.938Z,12.55
2022-09-29T22:56:12.983Z,11.73
2022-09-29T22:58:41.775Z,12.63
2022-09-29T23:01:13.563Z,12.05
2022-09-29T23:03:41.370Z,10.05
2022-09-29T23:06:08.481Z,10.38
2022-09-29T23:08:35.712Z,10.75
2022-09-29T23:11:07.528Z,11.68
2022-09-29T23:13:37.602Z,14.93
2022-09-29T23:16:09.661Z,14.48
2022-09-29T23:18:44.258Z,11.52
2022-09-29T23:21:12.761Z,12.85
2022-09-29T23:23:39.654Z,12.98
2022-09-29T23:26:06.731Z,11.23
2022-09-29T23:28:33.667Z,10.65
2022-09-29T23:31:07.612Z,9.27
2022-09-29T23:33:34.672Z,10.95
2022-09-29T23:36:12.012Z,10.10
2022-09-29T23:38:58.142Z,12.35
2022-09-29T23:41:27.242Z,11.02
2022-09-29T23:43:57.585Z,11.05
2022-09-29T23:46:25.299Z,11.02
2022-09-29T23:48:52.260Z,11.48
2022-09-29T23:51:19.263Z,9.50
2022-09-29T23:53:46.164Z,12.98
2022-09-29T23:56:13.086Z,12.00
2022-09-29T23:58:39.945Z,10.10
